createdAt,value
2023-04-21T00:04:01.250Z,25.58
2023-04-21T00:14:09.478Z,24.07
2023-04-21T00:19:14.039Z,24.90
2023-04-21T00:24:16.593Z,24.27
2023-04-21T00:29:20.793Z,25.48
2023-04-21T00:34:23.656Z,24.50
2023-04-21T00:39:26.469Z,25.83
2023-04-21T00:44:30.496Z,24.80
2023-04-21T00:49:33.614Z,23.77
2023-04-21T00:54:36.705Z,21.73
2023-04-21T00:59:40.959Z,23.70
2023-04-21T01:04:43.912Z,25.70
2023-04-21T01:09:46.579Z,22.52
2023-04-21T01:14:50.772Z,24.83
2023-04-21T01:19:57.428Z,23.35
2023-04-21T01:25:01.369Z,23.55
2023-04-21T01:30:05.816Z,22.55
2023-04-21T01:35:09.197Z,23.52
2023-04-21T01:40:13.744Z,23.40
2023-04-21T01:45:16.332Z,22.92
2023-04-21T01:50:19.251Z,22.53
2023-04-21T01:55:23.704Z,23.50
2023-04-21T02:00:26.555Z,24.25
2023-04-21T02:05:29.224Z,24.27
2023-04-21T02:10:34.691Z,23.57
2023-04-21T02:15:38.540Z,23.63
2023-04-21T02:20:41.265Z,23.10
2023-04-21T02:25:45.197Z,23.90
2023-04-21T02:30:47.815Z,24.10
2023-04-21T02:35:50.404Z,23.50
2023-04-21T02:40:54.412Z,23.97
2023-04-21T02:45:57.018Z,22.98
2023-04-21T02:50:59.781Z,23.77
2023-04-21T02:56:05.042Z,22.38
2023-04-21T03:01:07.759Z,22.25
2023-04-21T03:06:10.445Z,21.30
2023-04-21T03:11:14.658Z,23.60
2023-04-21T03:16:19.759Z,23.10
2023-04-21T03:21:22.530Z,21.73
2023-04-21T03:26:27.488Z,22.83
2023-04-21T03:31:30.160Z,23.90
2023-04-21T03:36:32.841Z,27.07
2023-04-21T03:41:36.900Z,28.27
2023-04-21T03:46:39.519Z,29.08
2023-04-21T03:51:42.109Z,29.63
2023-04-21T03:56:46.060Z,28.97
2023-04-21T04:01:48.729Z,29.95
2023-04-21T04:06:51.673Z,30.73
2023-04-21T04:11:56.072Z,30.85
2023-04-21T04:16:59.768Z,29.13
2023-04-21T04:22:02.706Z,28.70
2023-04-21T04:27:07.017Z,25.15
2023-04-21T04:32:11.033Z,27.73
2023-04-21T04:37:13.961Z,26.88
2023-04-21T04:42:20.294Z,27.97
2023-04-21T04:47:23.066Z,26.05
2023-04-21T04:52:26.268Z,27.30
2023-04-21T04:57:31.957Z,25.35
2023-04-21T05:02:34.908Z,26.30
2023-04-21T05:07:38.165Z,25.75
2023-04-21T05:12:42.133Z,24.55
2023-04-21T05:17:45.858Z,25.77
2023-04-21T05:22:48.582Z,24.48
2023-04-21T05:27:53.243Z,23.43
2023-04-21T05:32:55.888Z,23.55
2023-04-21T05:37:58.514Z,23.27
2023-04-21T05:43:02.461Z,24.63
2023-04-21T05:48:05.900Z,24.83
2023-04-21T05:58:12.815Z,25.13
2023-04-21T06:03:16.694Z,24.30
2023-04-21T06:08:19.382Z,24.75
2023-04-21T06:13:23.582Z,25.83
2023-04-21T06:18:28.860Z,26.42
2023-04-21T06:23:31.519Z,27.02
2023-04-21T06:28:36.768Z,27.47
2023-04-21T06:33:39.632Z,25.67
2023-04-21T06:38:43.312Z,27.17
2023-04-21T06:43:47.478Z,24.35
2023-04-21T06:48:50.155Z,25.50
2023-04-21T06:53:52.780Z,25.80
2023-04-21T06:58:57.532Z,24.00
2023-04-21T07:04:00.393Z,22.30
2023-04-21T07:09:03.080Z,22.35
2023-04-21T07:14:07.097Z,21.43
2023-04-21T07:19:10.110Z,20.67
2023-04-21T07:24:13.307Z,21.75
2023-04-21T07:29:18.277Z,21.17
2023-04-21T07:34:21.133Z,21.77
2023-04-21T07:39:26.979Z,21.63
2023-04-21T07:44:31.966Z,21.52
2023-04-21T07:49:35.186Z,18.92
2023-04-21T07:54:37.809Z,19.40
2023-04-21T07:59:41.924Z,18.93
2023-04-21T08:04:44.592Z,19.52
2023-04-21T08:09:47.347Z,20.50
2023-04-21T08:14:51.385Z,17.83
2023-04-21T08:19:54.036Z,17.73
2023-04-21T08:24:56.786Z,16.67
2023-04-21T08:30:01.177Z,15.27
2023-04-21T08:35:03.969Z,16.30
2023-04-21T08:40:08.295Z,16.83
2023-04-21T08:45:12.978Z,15.50
2023-04-21T08:50:15.870Z,15.70
2023-04-21T08:55:18.891Z,15.68
2023-04-21T09:00:23.147Z,16.15
2023-04-21T09:05:27.759Z,17.15
2023-04-21T09:10:31.101Z,16.08
2023-04-21T09:15:39.766Z,17.05
2023-04-21T09:20:43.896Z,17.02
2023-04-21T09:25:47.399Z,16.77
2023-04-21T09:30:57.356Z,16.48
2023-04-21T09:36:03.241Z,16.92
2023-04-21T09:41:06.420Z,16.58
2023-04-21T09:46:12.211Z,18.42
2023-04-21T09:56:25.469Z,17.20
2023-04-21T10:01:32.125Z,16.65
2023-04-21T10:06:36.339Z,16.70
2023-04-21T10:11:39.522Z,16.75
2023-04-21T10:16:43.919Z,16.17
2023-04-21T10:21:46.695Z,16.05
2023-04-21T10:26:54.566Z,16.95
2023-04-21T10:31:59.185Z,16.45
2023-04-21T10:37:17.437Z,16.15
2023-04-21T10:42:25.167Z,15.45
2023-04-21T10:47:30.501Z,15.07
2023-04-21T10:52:34.475Z,16.20
2023-04-21T10:57:37.939Z,15.55
2023-04-21T11:02:44.831Z,15.43
2023-04-21T11:07:47.776Z,15.80
2023-04-21T11:12:50.510Z,17.65
2023-04-21T11:17:55.650Z,18.13
2023-04-21T11:22:58.384Z,20.48
2023-04-21T11:28:01.067Z,20.10
2023-04-21T11:33:05.315Z,20.85
2023-04-21T11:38:07.962Z,16.42
2023-04-21T11:43:11.137Z,17.63
2023-04-21T11:53:23.316Z,16.20
2023-04-21T11:58:26.056Z,16.00
2023-04-21T12:03:30.399Z,17.00
2023-04-21T12:08:33.927Z,17.98
2023-04-21T12:13:36.633Z,16.48
2023-04-21T12:18:45.215Z,15.63
2023-04-21T12:23:47.974Z,14.65
2023-04-21T12:33:54.898Z,16.52
2023-04-21T12:38:57.573Z,15.63
2023-04-21T12:49:06.456Z,14.15
2023-04-21T12:54:09.088Z,14.95
2023-04-21T13:04:15.955Z,15.52
2023-04-21T13:09:18.937Z,15.07
2023-04-21T13:14:21.585Z,13.70
2023-04-21T13:19:25.805Z,15.00
2023-04-21T13:24:28.730Z,15.00
2023-04-21T13:29:34.193Z,18.02
2023-04-21T13:34:38.214Z,15.13
2023-04-21T13:39:40.990Z,14.75
2023-04-21T13:49:50.061Z,14.00
2023-04-21T13:54:54.074Z,14.35
2023-04-21T13:59:57.048Z,15.00
2023-04-21T14:05:01.319Z,14.93
2023-04-21T14:10:05.138Z,15.30
2023-04-21T14:15:08.975Z,16.40
2023-04-21T14:20:14.211Z,13.80
2023-04-21T14:25:17.024Z,14.75
2023-04-21T14:30:19.651Z,13.85
2023-04-21T14:35:23.661Z,15.07
2023-04-21T14:40:26.357Z,15.02
2023-04-21T14:45:30.318Z,14.73
2023-04-21T14:50:34.738Z,14.05
2023-04-21T14:55:37.782Z,15.40
2023-04-21T15:00:40.813Z,14.55
2023-04-21T15:05:46.470Z,14.70
2023-04-21T15:10:49.468Z,14.82
2023-04-21T15:21:01.762Z,15.65
2023-04-21T15:26:06.206Z,13.70
2023-04-21T15:31:10.295Z,15.40
2023-04-21T15:36:14.475Z,16.23
2023-04-21T15:41:17.659Z,15.15
2023-04-21T15:46:20.509Z,15.45
2023-04-21T15:51:24.688Z,15.90
2023-04-21T15:56:27.596Z,15.52
2023-04-21T16:01:31.020Z,15.43
2023-04-21T16:06:36.113Z,17.10
2023-04-21T16:11:38.948Z,15.95
2023-04-21T16:16:46.160Z,14.90
2023-04-21T16:21:50.376Z,15.80
2023-04-21T16:26:53.070Z,16.08
2023-04-21T16:31:57.859Z,16.33
2023-04-21T16:37:02.114Z,15.20
2023-04-21T16:42:06.697Z,14.75
2023-04-21T16:47:12.192Z,14.77
2023-04-21T16:52:16.414Z,12.50
2023-04-21T16:57:20.127Z,9.65
2023-04-21T17:02:23.440Z,10.02
2023-04-21T17:07:28.012Z,10.30
2023-04-21T17:12:34.084Z,10.30
2023-04-21T17:17:43.359Z,9.57
2023-04-21T17:22:48.005Z,9.63
2023-04-21T17:27:52.159Z,8.75
2023-04-21T17:33:08.407Z,9.27
2023-04-21T17:38:27.218Z,9.63
2023-04-21T17:43:29.890Z,9.40
2023-04-21T17:48:33.916Z,10.20
2023-04-21T17:54:03.032Z,10.80
2023-04-21T17:59:05.993Z,11.30
2023-04-21T18:09:13.840Z,10.73
2023-04-21T18:14:18.358Z,10.38
2023-04-21T18:19:22.274Z,10.75
2023-04-21T18:24:27.064Z,11.35
2023-04-21T18:29:59.694Z,10.13
2023-04-21T18:35:08.061Z,10.70
2023-04-21T18:40:13.867Z,11.07
2023-04-21T18:45:17.188Z,10.30
2023-04-21T18:50:23.458Z,8.82
2023-04-21T18:55:31.025Z,7.85
2023-04-21T19:00:39.560Z,9.82
2023-04-21T19:05:43.291Z,12.80
2023-04-21T19:10:48.105Z,15.90
2023-04-21T19:15:51.144Z,15.65
2023-04-21T19:20:58.037Z,15.95
2023-04-21T19:26:06.105Z,16.17
2023-04-21T19:31:09.722Z,15.32
2023-04-21T19:36:15.043Z,17.30
2023-04-21T19:41:22.201Z,17.23
2023-04-21T19:46:31.204Z,15.23
2023-04-21T19:51:34.766Z,17.17
2023-04-21T19:56:39.287Z,19.38
2023-04-21T20:01:42.583Z,19.20
2023-04-21T20:11:51.129Z,18.58
2023-04-21T20:16:54.237Z,40.20
2023-04-21T20:21:58.125Z,12.43
2023-04-21T20:27:21.167Z,9.30
2023-04-21T20:32:24.844Z,9.40
2023-04-21T20:37:28.190Z,8.55
2023-04-21T20:47:39.426Z,8.85
2023-04-21T20:52:46.241Z,8.93
2023-04-21T20:57:50.736Z,8.13
2023-04-21T21:02:54.878Z,7.40
2023-04-21T21:07:58.305Z,8.30
2023-04-21T21:18:26.654Z,11.95
2023-04-21T21:23:29.615Z,6.28
2023-04-21T21:28:32.604Z,4.85
2023-04-21T21:33:38.921Z,5.18
2023-04-21T21:38:43.063Z,4.43
2023-04-21T21:43:47.644Z,5.68
2023-04-21T21:48:51.732Z,5.82
2023-04-21T21:53:59.245Z,5.65
2023-04-21T21:59:03.020Z,5.28
2023-04-21T22:04:29.224Z,6.72
2023-04-21T22:09:34.871Z,6.85
2023-04-21T22:14:37.585Z,9.07
2023-04-21T22:19:43.154Z,8.87
2023-04-21T22:24:46.057Z,8.90
2023-04-21T22:29:48.903Z,9.05
2023-04-21T22:34:54.429Z,9.27
2023-04-21T22:39:58.839Z,9.05
2023-04-21T22:45:04.121Z,8.75
2023-04-21T22:50:10.486Z,9.52
2023-04-21T22:55:13.184Z,9.25
2023-04-21T23:00:37.797Z,9.10
2023-04-21T23:05:42.502Z,9.73
2023-04-21T23:10:48.882Z,10.13
2023-04-21T23:15:51.699Z,9.90
2023-04-21T23:21:21.852Z,11.07
2023-04-21T23:26:24.800Z,10.98
2023-04-21T23:31:30.667Z,11.25
2023-04-21T23:36:34.817Z,11.05
2023-04-21T23:41:37.646Z,12.88
2023-04-21T23:46:40.552Z,11.43
2023-04-21T23:51:44.946Z,13.53
2023-04-21T23:56:47.617Z,18.83
